Time;durP1;ratioP1;P1;durP2;ratioP2;P2;SDS_P1;SDS_P2;PMS_P1;PMS_P2;Temp;Humidity;BMP_temperature;BMP_pressure;BME280_temperature;BME280_humidity;BME280_pressure;Samples;Min_cycle;Max_cycle;Signal;HPM_P1;HPM_P2
2021/12/23 00:01:34;;;;;;;18.05;9.15;;;-1.00;99.90;;;;;;5050123;28;20049;-86
2021/12/23 00:04:02;;;;;;;16.45;8.82;;;-1.00;99.90;;;;;;5033502;28;20072;-86
2021/12/23 00:06:28;;;;;;;18.88;9.52;;;-0.90;99.90;;;;;;5031675;28;20041;-86
2021/12/23 00:08:55;;;;;;;14.27;8.57;;;-0.90;99.90;;;;;;5050087;28;20087;-86
2021/12/23 00:11:21;;;;;;;17.08;8.85;;;0.80;99.90;;;;;;5049762;28;20040;-86
2021/12/23 00:14:00;;;;;;;17.73;9.70;;;-0.90;99.90;;;;;;5033431;28;20039;-86
2021/12/23 00:16:41;;;;;;;18.10;8.55;;;0.80;99.90;;;;;;5033043;28;20047;-86
2021/12/23 00:24:38;;;;;;;14.63;8.80;;;-0.60;99.90;;;;;;5081406;28;20053;-86
2021/12/23 00:27:04;;;;;;;15.98;9.25;;;-0.80;99.90;;;;;;5030866;28;20075;-86
2021/12/23 00:29:30;;;;;;;17.20;9.90;;;-0.80;99.90;;;;;;5050151;28;20112;-86
2021/12/23 00:31:56;;;;;;;19.08;9.73;;;-0.70;99.90;;;;;;5049591;28;20037;-86
2021/12/23 00:34:22;;;;;;;18.40;9.45;;;-0.80;99.90;;;;;;5053661;28;20049;-86
2021/12/23 00:36:48;;;;;;;16.77;10.10;;;-0.30;99.90;;;;;;5037649;28;20047;-87
2021/12/23 00:39:15;;;;;;;;;;;-0.70;99.90;;;;;;5020947;28;20403;-86
2021/12/23 00:41:43;;;;;;;15.88;9.07;;;-0.70;99.90;;;;;;5037230;28;19916;-86
2021/12/23 00:44:09;;;;;;;19.48;9.30;;;0.80;99.90;;;;;;5019447;28;20053;-86
2021/12/23 00:46:35;;;;;;;15.70;9.07;;;-0.70;99.90;;;;;;5053843;28;20029;-86
2021/12/23 00:49:01;;;;;;;18.85;9.27;;;-0.70;99.90;;;;;;5053742;28;20669;-86
2021/12/23 00:51:29;;;;;;;17.35;8.70;;;-0.60;99.90;;;;;;5019163;28;20489;-86
2021/12/23 00:54:03;;;;;;;17.63;9.93;;;0.50;99.90;;;;;;5053508;28;20044;-86
2021/12/23 00:56:30;;;;;;;17.55;9.65;;;-0.60;99.90;;;;;;5053608;28;20400;-86
2021/12/23 00:58:55;;;;;;;15.75;9.18;;;-0.60;99.90;;;;;;5053673;28;20103;-87
2021/12/23 01:01:21;;;;;;;20.70;9.57;;;1.10;99.90;;;;;;5052828;28;20511;-86
2021/12/23 01:03:47;;;;;;;19.45;9.70;;;-0.50;99.90;;;;;;5052868;28;20049;-86
2021/12/23 01:06:13;;;;;;;16.70;9.70;;;-0.50;99.90;;;;;;5053363;28;20084;-86
2021/12/23 01:08:38;;;;;;;16.67;9.57;;;0.70;99.90;;;;;;5053282;28;20068;-86
2021/12/23 01:11:04;;;;;;;48.15;9.82;;;-0.50;99.90;;;;;;5053294;28;20477;-86
2021/12/23 01:13:30;;;;;;;16.02;9.63;;;-0.40;99.90;;;;;;5036033;28;20116;-86
2021/12/23 01:16:03;;;;;;;17.58;9.82;;;-0.40;99.90;;;;;;5053249;28;20033;-86
2021/12/23 01:18:37;;;;;;;18.33;9.70;;;-0.50;99.90;;;;;;5052985;28;20091;-86
2021/12/23 01:21:16;;;;;;;17.45;9.40;;;1.20;99.90;;;;;;5053025;28;20437;-86
2021/12/23 01:23:51;;;;;;;18.20;9.77;;;0.70;99.90;;;;;;5021758;28;20404;-86
2021/12/23 01:26:20;;;;;;;16.92;9.93;;;-0.50;99.90;;;;;;5036421;28;20033;-86
2021/12/23 01:28:49;;;;;;;17.25;9.32;;;-0.50;99.90;;;;;;5053782;28;20079;-86
2021/12/23 01:31:15;;;;;;;18.27;9.80;;;-0.40;99.90;;;;;;5084508;28;20059;-86
2021/12/23 01:33:41;;;;;;;17.65;9.80;;;-0.50;99.90;;;;;;5050636;28;20040;-86
2021/12/23 01:36:07;;;;;;;15.48;9.13;;;-0.50;99.90;;;;;;5036704;28;20041;-86
2021/12/23 01:38:33;;;;;;;19.83;10.75;;;-0.40;99.90;;;;;;5035575;28;20033;-86
2021/12/23 01:40:59;;;;;;;17.02;10.65;;;-0.40;99.90;;;;;;5052867;28;20040;-86
2021/12/23 01:43:25;;;;;;;19.10;10.75;;;-0.40;99.90;;;;;;5051043;28;20073;-86
2021/12/23 01:45:51;;;;;;;19.83;11.35;;;-0.50;99.90;;;;;;5036602;28;20558;-86
2021/12/23 01:48:18;;;;;;;20.35;11.00;;;-0.50;99.90;;;;;;5052216;28;20033;-86
2021/12/23 01:50:44;;;;;;;24.98;12.30;;;-0.50;99.90;;;;;;5019785;28;20033;-86
2021/12/23 01:53:10;;;;;;;23.30;13.30;;;1.30;99.90;;;;;;5036200;28;20035;-86
2021/12/23 01:55:37;;;;;;;23.88;12.52;;;-0.50;99.90;;;;;;5052378;28;20036;-86
2021/12/23 01:58:05;;;;;;;22.55;12.73;;;0.80;99.90;;;;;;5035763;28;20037;-86
2021/12/23 02:00:33;;;;;;;25.50;12.55;;;-0.50;99.90;;;;;;5051898;28;20501;-86
2021/12/23 02:03:02;;;;;;;20.35;11.15;;;-0.50;99.90;;;;;;5052398;28;20073;-86
2021/12/23 02:05:30;;;;;;;20.45;9.27;;;-0.50;99.90;;;;;;5019150;28;20041;-86
2021/12/23 02:07:56;;;;;;;21.60;11.50;;;-0.30;99.90;;;;;;5052491;28;20693;-86
2021/12/23 02:10:22;;;;;;;23.42;11.60;;;0.20;99.90;;;;;;5035128;28;20037;-86
2021/12/23 02:12:49;;;;;;;21.05;11.23;;;-0.20;99.90;;;;;;5052454;28;20025;-86
2021/12/23 02:15:16;;;;;;;20.35;11.38;;;-0.20;99.90;;;;;;5051663;28;20044;-86
2021/12/23 02:17:43;;;;;;;21.77;10.20;;;1.60;99.90;;;;;;5035130;28;20083;-86
2021/12/23 02:20:12;;;;;;;21.30;11.55;;;1.60;99.90;;;;;;5051759;28;20049;-86
2021/12/23 02:22:39;;;;;;;20.75;11.30;;;-0.20;99.90;;;;;;5051279;28;20041;-86
2021/12/23 02:25:06;;;;;;;22.27;11.45;;;-0.70;99.90;;;;;;5051389;28;20087;-86
2021/12/23 02:27:32;;;;;;;23.00;11.57;;;-0.10;99.90;;;;;;5051187;28;20118;-86
2021/12/23 02:29:57;;;;;;;21.10;11.85;;;-0.20;99.90;;;;;;5035236;28;20037;-86
2021/12/23 02:32:23;;;;;;;26.42;12.30;;;-0.10;99.90;;;;;;5051241;28;20489;-86
2021/12/23 02:34:49;;;;;;;21.83;12.10;;;0.70;99.90;;;;;;5035369;28;20123;-86
2021/12/23 02:37:15;;;;;;;23.58;12.35;;;-0.20;99.90;;;;;;5051598;28;20045;-86
2021/12/23 02:39:42;;;;;;;22.70;12.15;;;-0.10;99.90;;;;;;5051128;28;20037;-86
2021/12/23 02:42:08;;;;;;;21.77;11.70;;;-0.10;99.90;;;;;;5051854;28;20102;-86
2021/12/23 02:44:34;;;;;;;18.77;11.88;;;-0.10;99.90;;;;;;5051200;28;20040;-86
2021/12/23 02:46:59;;;;;;;21.60;12.00;;;0.30;99.90;;;;;;5035038;28;20167;-86
2021/12/23 02:49:28;;;;;;;19.80;11.13;;;1.00;99.90;;;;;;5034572;28;20639;-86
2021/12/23 02:51:53;;;;;;;25.40;12.68;;;-0.20;99.90;;;;;;5051313;28;20033;-86
2021/12/23 02:54:19;;;;;;;23.25;12.32;;;1.20;99.90;;;;;;5050960;28;20041;-86
2021/12/23 02:56:45;;;;;;;17.13;10.25;;;-0.30;99.90;;;;;;5034674;28;20049;-86
2021/12/23 02:59:11;;;;;;;26.65;11.32;;;-0.20;99.90;;;;;;5035697;28;20040;-86
2021/12/23 03:01:37;;;;;;;21.00;11.73;;;-0.10;99.90;;;;;;5050749;28;20044;-86
2021/12/23 03:04:03;;;;;;;18.70;10.77;;;-0.10;99.90;;;;;;5050738;28;20516;-84
2021/12/23 03:06:29;;;;;;;22.15;11.38;;;-0.10;99.90;;;;;;5050843;28;20041;-84
2021/12/23 03:08:59;;;;;;;21.98;11.25;;;-0.10;99.90;;;;;;5051426;28;20091;-84
2021/12/23 03:11:27;;;;;;;21.05;11.50;;;-0.20;99.90;;;;;;5033761;28;20055;-86
2021/12/23 03:13:54;;;;;;;20.60;10.68;;;0.20;99.90;;;;;;5034633;28;20519;-86
2021/12/23 03:16:31;;;;;;;23.02;11.77;;;0.20;99.90;;;;;;5050299;28;20048;-86
2021/12/23 03:18:57;;;;;;;19.27;10.88;;;0.00;99.90;;;;;;5034087;28;20104;-85
2021/12/23 03:21:23;;;;;;;21.08;10.30;;;0.10;99.90;;;;;;5050379;28;20094;-86
2021/12/23 03:23:51;;;;;;;20.55;11.43;;;0.20;99.90;;;;;;5034179;28;20044;-86
2021/12/23 03:26:18;;;;;;;14.93;8.80;;;0.20;99.90;;;;;;5031682;28;20045;-86
2021/12/23 03:28:44;;;;;;;22.38;11.10;;;0.10;99.90;;;;;;5050108;28;20106;-86
2021/12/23 03:31:09;;;;;;;21.40;11.38;;;1.90;99.90;;;;;;5050538;28;20045;-86
2021/12/23 03:33:35;;;;;;;18.90;10.18;;;0.70;99.90;;;;;;5049909;28;20137;-86
2021/12/23 03:36:02;;;;;;;21.25;12.10;;;0.10;99.90;;;;;;5016999;28;20037;-86
2021/12/23 03:38:28;;;;;;;;;;;0.10;99.90;;;;;;5033663;28;20443;-84
2021/12/23 03:40:55;;;;;;;23.40;12.07;;;0.10;99.90;;;;;;5050063;28;19924;-84
2021/12/23 03:43:21;;;;;;;25.00;11.50;;;0.10;99.90;;;;;;5050083;28;20119;-85
2021/12/23 03:45:48;;;;;;;21.15;11.77;;;0.00;99.90;;;;;;5033461;28;20033;-84
2021/12/23 03:48:15;;;;;;;20.83;11.77;;;0.10;99.90;;;;;;5050097;28;20041;-85
2021/12/23 03:50:43;;;;;;;22.35;12.45;;;0.00;99.90;;;;;;5033000;28;20037;-82
2021/12/23 03:53:09;;;;;;;22.60;12.05;;;1.70;99.90;;;;;;5030974;28;20043;-83
2021/12/23 03:55:35;;;;;;;23.95;13.15;;;0.10;99.90;;;;;;5032659;28;20512;-83
2021/12/23 03:58:01;;;;;;;21.10;11.63;;;0.00;99.90;;;;;;5050188;28;20029;-83
2021/12/23 04:00:26;;;;;;;24.38;11.38;;;0.00;99.90;;;;;;5032674;28;20044;-83
2021/12/23 04:02:53;;;;;;;23.40;12.75;;;0.00;99.90;;;;;;5033254;28;20397;-82
2021/12/23 04:05:19;;;;;;;23.38;12.45;;;1.70;99.90;;;;;;5049570;28;20101;-82
2021/12/23 04:07:45;;;;;;;24.48;12.75;;;-0.10;99.90;;;;;;5032730;28;20541;-83
2021/12/23 04:10:15;;;;;;;25.30;12.52;;;1.10;99.90;;;;;;5033341;28;20108;-83
2021/12/23 04:12:42;;;;;;;20.25;11.73;;;-0.10;99.90;;;;;;5083496;28;20037;-82
2021/12/23 04:15:09;;;;;;;24.20;12.55;;;1.70;99.90;;;;;;5033361;28;20060;-82
2021/12/23 04:17:34;;;;;;;;;;;0.00;99.90;;;;;;5049859;28;20382;-85
2021/12/23 04:20:31;;;;;;;23.70;12.15;;;0.00;99.90;;;;;;5049464;28;19923;-85
2021/12/23 04:22:57;;;;;;;22.75;11.75;;;0.00;99.90;;;;;;5082155;28;20124;-85
2021/12/23 04:25:25;;;;;;;24.08;11.50;;;0.00;99.90;;;;;;5049638;28;20037;-85
2021/12/23 04:27:55;;;;;;;24.48;12.23;;;0.10;99.90;;;;;;5049227;28;20113;-85
2021/12/23 04:30:22;;;;;;;23.63;12.15;;;0.00;99.90;;;;;;5033160;28;20048;-85
2021/12/23 04:32:48;;;;;;;22.08;11.80;;;0.10;99.90;;;;;;5049467;28;20060;-85
2021/12/23 04:35:15;;;;;;;24.25;11.73;;;0.10;99.90;;;;;;5033106;28;20120;-85
2021/12/23 04:37:41;;;;;;;23.55;11.98;;;0.10;99.90;;;;;;5032575;28;20041;-83
2021/12/23 04:40:09;;;;;;;22.83;11.80;;;0.00;99.90;;;;;;5038770;28;20045;-83
2021/12/23 04:42:35;;;;;;;22.02;12.57;;;0.00;99.90;;;;;;5049298;28;20381;-83
2021/12/23 04:45:02;;;;;;;23.85;12.73;;;1.40;99.90;;;;;;5049558;28;20501;-83
2021/12/23 04:47:28;;;;;;;21.80;11.13;;;0.10;99.90;;;;;;5049879;28;20033;-82
2021/12/23 04:49:54;;;;;;;26.42;12.80;;;0.00;99.90;;;;;;5050194;28;20044;-84
2021/12/23 04:52:19;;;;;;;23.87;11.67;;;0.50;99.90;;;;;;5049670;28;20037;-84
2021/12/23 04:54:45;;;;;;;20.13;11.77;;;0.00;99.90;;;;;;5049428;28;20322;-83
2021/12/23 04:57:11;;;;;;;23.83;12.23;;;2.00;99.90;;;;;;5033413;28;20742;-83
2021/12/23 04:59:36;;;;;;;25.95;13.13;;;1.90;99.90;;;;;;5049670;28;20488;-83
2021/12/23 05:02:02;;;;;;;21.63;12.00;;;0.00;99.90;;;;;;5049875;28;20056;-84
2021/12/23 05:04:28;;;;;;;21.75;13.23;;;0.20;99.90;;;;;;5049963;28;20056;-84
2021/12/23 05:06:54;;;;;;;24.38;12.80;;;0.10;99.90;;;;;;5050039;28;20066;-84
2021/12/23 05:09:20;;;;;;;21.20;11.90;;;0.10;99.90;;;;;;5033432;28;20408;-83
2021/12/23 05:11:45;;;;;;;23.13;11.57;;;0.80;99.90;;;;;;5049887;28;20406;-85
2021/12/23 05:14:11;;;;;;;22.00;11.57;;;0.20;99.90;;;;;;5049895;28;20040;-84
2021/12/23 05:16:37;;;;;;;21.30;11.95;;;0.20;99.90;;;;;;5048505;28;20754;-83
2021/12/23 05:19:03;;;;;;;22.42;12.55;;;0.20;99.90;;;;;;5035434;28;20033;-83
2021/12/23 05:21:29;;;;;;;23.08;12.25;;;0.30;99.90;;;;;;5053353;28;20033;-83
2021/12/23 05:23:55;;;;;;;22.15;11.98;;;0.30;99.90;;;;;;5053907;28;20049;-87
2021/12/23 05:26:21;;;;;;;20.10;11.43;;;1.90;99.90;;;;;;5038527;28;20041;-86
2021/12/23 05:28:47;;;;;;;22.98;10.73;;;0.40;99.90;;;;;;5020806;28;20025;-84
2021/12/23 05:31:12;;;;;;;23.70;12.00;;;0.40;99.90;;;;;;5036680;28;20037;-85
2021/12/23 05:33:38;;;;;;;22.30;11.97;;;1.10;99.90;;;;;;5053547;28;20287;-85
2021/12/23 05:36:04;;;;;;;21.08;11.23;;;1.70;99.90;;;;;;5037103;28;20837;-85
2021/12/23 05:38:30;;;;;;;20.42;10.43;;;0.30;99.90;;;;;;5020444;28;20409;-83
2021/12/23 05:40:55;;;;;;;24.85;12.45;;;0.40;99.90;;;;;;5036976;28;20109;-84
2021/12/23 05:43:21;;;;;;;22.20;11.32;;;0.40;99.90;;;;;;5053471;28;20053;-85
2021/12/23 05:45:47;;;;;;;20.67;10.95;;;0.40;99.90;;;;;;5053176;28;21407;-84
2021/12/23 05:48:13;;;;;;;25.83;12.77;;;0.40;99.90;;;;;;5053124;28;20037;-85
2021/12/23 05:50:38;;;;;;;24.10;11.45;;;0.70;99.90;;;;;;5035685;28;20033;-85
2021/12/23 05:53:04;;;;;;;18.63;10.38;;;0.50;99.90;;;;;;5036096;28;20056;-85
2021/12/23 05:55:30;;;;;;;21.83;11.68;;;1.10;99.90;;;;;;5052815;28;20041;-85
2021/12/23 05:57:56;;;;;;;22.67;11.90;;;0.50;99.90;;;;;;5035439;28;20048;-85
2021/12/23 06:00:28;;;;;;;23.17;11.80;;;0.50;99.90;;;;;;5052419;28;20041;-84
2021/12/23 06:02:55;;;;;;;19.92;11.30;;;0.90;99.90;;;;;;5083850;28;20068;-84
2021/12/23 06:05:21;;;;;;;25.92;12.30;;;0.50;99.90;;;;;;5052528;28;20053;-85
2021/12/23 06:07:47;;;;;;;22.10;11.65;;;0.40;99.90;;;;;;5035025;28;20159;-85
2021/12/23 06:10:14;;;;;;;23.00;12.30;;;0.40;99.90;;;;;;5052428;28;20503;-84
2021/12/23 06:12:41;;;;;;;28.23;13.02;;;0.40;99.90;;;;;;5034969;28;20037;-84
2021/12/23 06:15:07;;;;;;;21.40;11.10;;;1.70;99.90;;;;;;5052111;28;20189;-85
2021/12/23 06:17:34;;;;;;;21.27;10.45;;;0.50;99.90;;;;;;5035629;28;20404;-85
2021/12/23 06:19:59;;;;;;;24.30;11.80;;;0.60;99.90;;;;;;5052079;28;20120;-85
2021/12/23 06:22:26;;;;;;;20.90;11.18;;;1.20;99.90;;;;;;5035045;28;20091;-85
2021/12/23 06:24:52;;;;;;;22.58;12.60;;;0.50;99.90;;;;;;5052273;28;20516;-84
2021/12/23 06:27:20;;;;;;;25.67;12.95;;;0.60;99.90;;;;;;5035489;28;20064;-84
2021/12/23 06:29:46;;;;;;;28.30;13.60;;;0.60;99.90;;;;;;5034477;28;20116;-84
2021/12/23 06:32:12;;;;;;;22.90;11.95;;;0.50;99.90;;;;;;5035676;28;20124;-85
2021/12/23 06:34:38;;;;;;;24.42;11.98;;;0.50;99.90;;;;;;5035060;28;20048;-85
2021/12/23 06:37:05;;;;;;;21.95;12.52;;;0.50;99.90;;;;;;5051799;28;20066;-84
2021/12/23 06:39:34;;;;;;;23.45;12.60;;;0.50;99.90;;;;;;5051663;28;20157;-84
2021/12/23 06:42:03;;;;;;;22.63;12.30;;;0.50;99.90;;;;;;5051976;28;20037;-85
2021/12/23 06:44:29;;;;;;;16.45;9.43;;;0.50;99.90;;;;;;5051440;28;20528;-84
2021/12/23 06:46:55;;;;;;;19.63;10.60;;;0.60;99.90;;;;;;5034866;28;20068;-85
2021/12/23 06:49:20;;;;;;;23.08;12.35;;;0.50;99.90;;;;;;5035031;28;20033;-85
2021/12/23 06:51:46;;;;;;;24.30;12.07;;;0.50;99.90;;;;;;5051042;28;20033;-85
2021/12/23 06:54:17;;;;;;;26.10;13.68;;;0.50;99.90;;;;;;5051498;28;20515;-85
2021/12/23 06:56:43;;;;;;;24.10;12.32;;;0.60;99.90;;;;;;5031806;28;20033;-84
2021/12/23 06:59:09;;;;;;;23.83;13.38;;;0.50;99.90;;;;;;5051402;28;20033;-86
2021/12/23 07:01:35;;;;;;;22.25;12.02;;;0.60;99.90;;;;;;5034943;28;20119;-85
2021/12/23 07:04:13;;;;;;;23.02;12.35;;;1.30;99.90;;;;;;5051165;28;20049;-85
2021/12/23 07:06:46;;;;;;;24.00;13.75;;;0.80;99.90;;;;;;5034351;28;20037;-80
2021/12/23 07:09:12;;;;;;;24.23;12.30;;;0.70;99.90;;;;;;5035590;28;20106;-81
2021/12/23 07:11:38;;;;;;;23.95;13.27;;;0.90;99.90;;;;;;5034767;28;20053;-80
2021/12/23 07:14:04;;;;;;;23.77;13.27;;;0.90;99.90;;;;;;5040039;28;20489;-81
2021/12/23 07:16:30;;;;;;;26.13;13.38;;;0.90;99.90;;;;;;5043463;28;20124;-81
2021/12/23 07:18:55;;;;;;;25.77;13.23;;;1.00;99.90;;;;;;5047364;28;20045;-81
2021/12/23 07:21:21;;;;;;;27.48;13.50;;;0.80;99.90;;;;;;5028359;28;20475;-81
2021/12/23 07:23:47;;;;;;;30.05;14.93;;;0.80;99.90;;;;;;5045674;28;20063;-80
2021/12/23 07:26:14;;;;;;;32.30;14.43;;;0.70;99.90;;;;;;5030141;28;20041;-81
2021/12/23 07:28:39;;;;;;;25.80;12.45;;;0.80;99.90;;;;;;5030638;28;20043;-80
2021/12/23 07:31:05;;;;;;;29.08;15.50;;;0.90;99.90;;;;;;5045946;28;20044;-80
2021/12/23 07:33:31;;;;;;;23.13;12.93;;;0.80;99.90;;;;;;5044901;28;20124;-81
2021/12/23 07:35:56;;;;;;;25.15;12.85;;;0.80;99.90;;;;;;5046779;28;20052;-81
2021/12/23 07:38:22;;;;;;;24.80;13.55;;;0.90;99.90;;;;;;5047305;28;20041;-80
2021/12/23 07:40:48;;;;;;;24.38;11.43;;;0.80;99.90;;;;;;5046243;28;20044;-82
2021/12/23 07:46:00;;;;;;;26.98;13.95;;;0.90;99.90;;;;;;5045982;28;20091;-81
2021/12/23 07:48:30;;;;;;;26.70;14.77;;;0.90;99.90;;;;;;5028902;28;20045;-81
2021/12/23 07:50:57;;;;;;;26.77;14.30;;;0.90;99.90;;;;;;5030826;28;20043;-80
2021/12/23 07:53:22;;;;;;;30.63;13.95;;;0.80;99.90;;;;;;5044500;28;20389;-80
2021/12/23 07:55:48;;;;;;;27.83;14.45;;;0.80;99.90;;;;;;5046848;28;20041;-80
2021/12/23 07:58:14;;;;;;;27.05;13.93;;;0.90;99.90;;;;;;5046391;28;20044;-81
2021/12/23 08:00:40;;;;;;;18.52;10.85;;;0.90;99.90;;;;;;5028502;28;20044;-81
2021/12/23 08:03:05;;;;;;;27.23;13.45;;;0.90;99.90;;;;;;5044483;28;20496;-83
2021/12/23 08:05:33;;;;;;;21.60;11.90;;;0.80;99.90;;;;;;5042693;28;20041;-83
2021/12/23 08:07:59;;;;;;;27.77;13.15;;;0.70;99.90;;;;;;5046236;28;20040;-81
2021/12/23 08:10:25;;;;;;;24.88;13.45;;;1.90;99.90;;;;;;5043127;28;20086;-83
2021/12/23 08:12:51;;;;;;;24.92;13.15;;;1.50;99.90;;;;;;5059896;28;20405;-82
2021/12/23 08:15:17;;;;;;;27.00;13.85;;;1.90;99.90;;;;;;5044518;28;20041;-82
2021/12/23 08:17:43;;;;;;;28.25;13.35;;;0.80;99.90;;;;;;5027538;28;20064;-81
2021/12/23 08:20:10;;;;;;;28.85;14.48;;;1.60;99.90;;;;;;5029015;28;20076;-81
2021/12/23 08:22:36;;;;;;;26.45;13.48;;;0.80;99.90;;;;;;5042194;28;20095;-81
2021/12/23 08:25:03;;;;;;;25.13;13.07;;;0.70;99.90;;;;;;5048468;28;20041;-81
2021/12/23 08:27:30;;;;;;;23.20;12.30;;;0.80;99.90;;;;;;5044710;28;20052;-81
2021/12/23 08:29:56;;;;;;;28.63;14.18;;;0.80;99.90;;;;;;5046521;28;20041;-82
2021/12/23 08:32:23;;;;;;;28.38;14.32;;;1.40;99.90;;;;;;5045555;28;20128;-82
2021/12/23 08:34:49;;;;;;;27.02;14.05;;;0.90;99.90;;;;;;5044697;28;20047;-82
2021/12/23 08:37:15;;;;;;;29.92;15.13;;;0.80;99.90;;;;;;5047145;28;20056;-82
2021/12/23 08:39:42;;;;;;;29.88;15.20;;;0.70;99.90;;;;;;5046316;28;20041;-82
2021/12/23 08:42:09;;;;;;;26.38;13.43;;;1.30;99.90;;;;;;5045446;28;20095;-82
2021/12/23 08:44:35;;;;;;;30.60;16.35;;;0.70;99.90;;;;;;5030523;28;20090;-81
2021/12/23 08:47:01;;;;;;;;;;;0.70;99.90;;;;;;5030525;28;20048;-81
2021/12/23 08:49:27;;;;;;;31.02;15.05;;;0.60;99.90;;;;;;5078788;28;19924;-82
2021/12/23 08:51:53;;;;;;;35.28;15.90;;;0.70;99.90;;;;;;5045452;28;20126;-82
2021/12/23 08:54:19;;;;;;;29.63;15.30;;;0.60;99.90;;;;;;5034634;28;20045;-82
2021/12/23 08:56:45;;;;;;;30.50;13.98;;;0.60;99.90;;;;;;5031395;28;20075;-82
2021/12/23 08:59:12;;;;;;;27.92;14.60;;;0.50;99.90;;;;;;5049820;28;20073;-83
2021/12/23 09:01:40;;;;;;;28.73;15.70;;;0.60;99.90;;;;;;5049498;28;20100;-85
2021/12/23 09:04:05;;;;;;;33.53;16.10;;;1.60;99.90;;;;;;5051034;28;20063;-85
2021/12/23 09:06:31;;;;;;;30.65;15.90;;;0.70;99.90;;;;;;5049766;28;20120;-84
2021/12/23 09:08:58;;;;;;;32.67;15.25;;;0.70;99.90;;;;;;5034600;28;20048;-86
2021/12/23 09:11:25;;;;;;;35.28;17.70;;;0.80;99.90;;;;;;5047257;28;20041;-83
2021/12/23 09:13:51;;;;;;;28.25;14.43;;;0.60;99.90;;;;;;5031711;28;20107;-82
2021/12/23 09:16:17;;;;;;;33.78;16.83;;;0.60;99.90;;;;;;5050339;28;20150;-83
2021/12/23 09:18:43;;;;;;;34.28;17.33;;;0.60;99.90;;;;;;5033804;28;20068;-82
2021/12/23 09:21:11;;;;;;;33.63;16.60;;;0.60;99.90;;;;;;5049084;28;20095;-81
2021/12/23 09:23:36;;;;;;;31.08;14.68;;;0.60;99.90;;;;;;5048775;28;20069;-81
2021/12/23 09:26:09;;;;;;;37.50;17.80;;;0.80;99.90;;;;;;5049693;28;20070;-82
2021/12/23 09:28:57;;;;;;;35.83;17.63;;;0.80;99.90;;;;;;5049936;28;20603;-80
2021/12/23 09:34:09;;;;;;;34.88;17.60;;;0.70;99.90;;;;;;5046520;28;20049;-81
2021/12/23 09:36:35;;;;;;;35.97;16.55;;;0.70;99.90;;;;;;5033160;28;20057;-79
2021/12/23 09:39:04;;;;;;;35.08;17.10;;;0.70;99.90;;;;;;5049432;28;20076;-80
2021/12/23 09:41:31;;;;;;;37.28;18.90;;;1.20;99.90;;;;;;5047243;28;20591;-80
2021/12/23 09:43:59;;;;;;;37.78;17.83;;;0.70;99.90;;;;;;5031226;28;20608;-81
2021/12/23 09:46:25;;;;;;;37.40;19.02;;;0.70;99.90;;;;;;5049867;28;20503;-81
2021/12/23 09:48:52;;;;;;;43.25;20.08;;;0.70;99.90;;;;;;5049469;28;20389;-81
2021/12/23 09:51:20;;;;;;;44.85;20.23;;;1.90;99.90;;;;;;5044244;28;20045;-80
2021/12/23 09:53:57;;;;;;;44.17;20.63;;;0.70;99.90;;;;;;5049375;28;20053;-82
2021/12/23 09:56:25;;;;;;;47.80;21.45;;;1.30;99.90;;;;;;5032960;28;20112;-81
2021/12/23 09:58:51;;;;;;;41.80;20.45;;;1.50;99.90;;;;;;5031997;28;20043;-81
2021/12/23 10:01:17;;;;;;;44.40;19.67;;;0.80;99.90;;;;;;5046981;28;20072;-79
2021/12/23 10:03:43;;;;;;;51.22;22.33;;;0.80;99.90;;;;;;5032732;28;20509;-82
2021/12/23 10:06:09;;;;;;;;;;;0.80;99.90;;;;;;5049500;28;20143;-80
2021/12/23 10:08:35;;;;;;;50.30;21.90;;;1.10;99.90;;;;;;5082765;28;20380;-80
2021/12/23 10:11:29;;;;;;;50.40;21.02;;;1.70;99.90;;;;;;5043962;28;20068;-82
2021/12/23 10:29:20;;;;;;;53.42;22.05;;;0.70;99.90;;;;;;5084523;28;20095;-81
2021/12/23 10:30:37;;;;;;;57.08;24.10;;;0.70;99.90;;;;;;5050364;28;20373;-81
2021/12/23 10:38:41;;;;;;;56.13;23.60;;;1.70;99.90;;;;;;5081833;28;20049;-81
2021/12/23 10:41:24;;;;;;;64.05;26.17;;;0.80;99.90;;;;;;5048864;28;20045;-81
2021/12/23 10:43:59;;;;;;;61.83;26.63;;;0.80;99.90;;;;;;5082599;28;20041;-81
2021/12/23 10:46:35;;;;;;;61.75;25.83;;;0.80;99.90;;;;;;5047006;28;20040;-81
2021/12/23 10:52:03;;;;;;;55.00;23.55;;;0.80;99.90;;;;;;5049142;28;20056;-82
2021/12/23 11:00:37;;;;;;;64.55;25.98;;;2.00;99.90;;;;;;5042929;28;20080;-81
2021/12/23 11:03:26;;;;;;;61.45;25.23;;;1.20;99.90;;;;;;5030752;28;20051;-81
2021/12/23 11:06:05;;;;;;;61.17;25.58;;;0.80;99.90;;;;;;5032730;28;20048;-82
2021/12/23 11:27:23;;;;;;;63.72;24.85;;;0.80;99.90;;;;;;5047105;28;20055;-81
2021/12/23 11:39:45;;;;;;;77.32;27.67;;;0.90;99.90;;;;;;5047866;28;20048;-82
2021/12/23 11:44:57;;;;;;;63.70;25.38;;;0.80;99.90;;;;;;5047510;28;20045;-81
2021/12/23 11:47:24;;;;;;;75.40;27.40;;;0.90;99.90;;;;;;5031411;28;20076;-75
2021/12/23 11:49:51;;;;;;;80.85;28.92;;;0.90;99.90;;;;;;5048756;28;20040;-81
2021/12/23 11:52:16;;;;;;;;;;;1.00;99.90;;;;;;5048241;28;20037;-81
2021/12/23 11:54:45;;;;;;;69.97;27.75;;;1.00;99.90;;;;;;5031619;28;20003;-81
2021/12/23 11:57:18;;;;;;;65.50;25.73;;;0.90;99.90;;;;;;5047466;28;20078;-80
2021/12/23 12:00:04;;;;;;;66.32;26.15;;;1.00;99.90;;;;;;5031827;28;20041;-81
2021/12/23 12:02:32;;;;;;;73.50;27.85;;;1.10;99.90;;;;;;5029019;28;20037;-81
2021/12/23 12:05:01;;;;;;;68.70;27.42;;;1.00;99.90;;;;;;5034124;28;20052;-80
2021/12/23 12:07:27;;;;;;;71.10;26.48;;;1.00;99.90;;;;;;5047376;28;20045;-81
2021/12/23 12:10:12;;;;;;;73.45;28.13;;;1.00;99.90;;;;;;5015419;28;20043;-81
2021/12/23 12:12:58;;;;;;;75.95;27.52;;;1.00;99.90;;;;;;5079182;28;20425;-80
2021/12/23 12:15:39;;;;;;;78.55;29.88;;;1.00;99.90;;;;;;5031586;28;20029;-81
2021/12/23 12:18:07;;;;;;;80.03;29.67;;;1.00;99.90;;;;;;5048698;28;20086;-82
2021/12/23 12:20:36;;;;;;;76.82;27.45;;;1.00;99.90;;;;;;5032080;28;20057;-80
2021/12/23 12:23:05;;;;;;;69.15;26.50;;;1.00;99.90;;;;;;5046692;28;20044;-80
2021/12/23 12:25:54;;;;;;;68.00;26.63;;;1.00;99.90;;;;;;5044421;28;20045;-80
2021/12/23 12:28:26;;;;;;;79.32;27.50;;;1.10;99.90;;;;;;5079358;28;20048;-80
2021/12/23 12:31:06;;;;;;;78.05;28.92;;;0.20;99.90;;;;;;5032756;28;20048;-80
2021/12/23 12:33:34;;;;;;;74.90;28.75;;;1.10;99.90;;;;;;5046816;28;20075;-80
2021/12/23 12:36:03;;;;;;;69.00;28.17;;;1.20;99.90;;;;;;5032318;28;20489;-82
2021/12/23 12:38:35;;;;;;;68.43;26.75;;;1.10;99.90;;;;;;5048396;28;20930;-81
2021/12/23 12:41:00;;;;;;;56.88;23.70;;;1.10;99.90;;;;;;5048439;28;20037;-82
2021/12/23 12:43:40;;;;;;;69.47;26.07;;;1.10;99.90;;;;;;5029728;28;20045;-82
2021/12/23 12:46:09;;;;;;;69.45;28.23;;;1.20;99.90;;;;;;5030855;28;20063;-82
2021/12/23 12:48:57;;;;;;;70.18;28.83;;;1.20;99.90;;;;;;5031348;28;20037;-80
2021/12/23 12:51:31;;;;;;;74.18;27.75;;;1.20;99.90;;;;;;5028867;28;20473;-82
2021/12/23 12:54:04;;;;;;;81.28;28.88;;;1.50;99.90;;;;;;5031773;28;20033;-82
2021/12/23 12:56:42;;;;;;;75.18;29.08;;;1.30;99.90;;;;;;5045526;28;20135;-82
2021/12/23 12:59:09;;;;;;;63.50;27.42;;;1.50;99.90;;;;;;5031450;28;20122;-82
2021/12/23 13:01:37;;;;;;;69.43;26.90;;;1.40;99.90;;;;;;5046254;28;20057;-81
2021/12/23 13:04:31;;;;;;;68.55;25.80;;;1.40;99.90;;;;;;5031598;28;20553;-82
2021/12/23 13:06:59;;;;;;;79.28;28.70;;;1.30;99.90;;;;;;5029879;28;20036;-81
2021/12/23 13:09:30;;;;;;;71.57;26.90;;;1.40;99.90;;;;;;5047292;28;20512;-82
2021/12/23 13:11:59;;;;;;;67.60;27.88;;;1.40;99.90;;;;;;5045619;28;20094;-82
2021/12/23 13:15:05;;;;;;;70.03;27.88;;;1.40;99.90;;;;;;5048265;28;20037;-82
2021/12/23 13:17:52;;;;;;;68.53;28.33;;;1.30;99.90;;;;;;5029802;28;20041;-82
2021/12/23 13:20:18;;;;;;;72.97;28.65;;;1.30;99.90;;;;;;5031317;28;20052;-81
2021/12/23 13:22:45;;;;;;;67.13;25.98;;;1.20;99.90;;;;;;5047428;28;20075;-81
2021/12/23 13:25:12;;;;;;;73.88;26.90;;;1.20;99.90;;;;;;5047763;28;20110;-80
2021/12/23 13:27:42;;;;;;;79.80;30.63;;;1.20;99.90;;;;;;5032899;28;20036;-80
2021/12/23 13:30:10;;;;;;;72.97;27.48;;;1.20;99.90;;;;;;5031731;28;20453;-81
2021/12/23 13:32:36;;;;;;;72.72;29.67;;;1.20;99.90;;;;;;5029181;28;20065;-82
2021/12/23 13:35:14;;;;;;;73.03;27.98;;;1.20;99.90;;;;;;5047733;28;20036;-82
2021/12/23 13:37:46;;;;;;;75.05;27.77;;;1.20;99.90;;;;;;5047524;28;20086;-81
2021/12/23 13:40:34;;;;;;;72.93;28.63;;;1.20;99.90;;;;;;5081844;28;20565;-80
2021/12/23 13:43:03;;;;;;;68.72;27.80;;;1.20;99.90;;;;;;5033195;28;20082;-80
2021/12/23 13:45:30;;;;;;;75.03;28.38;;;1.10;99.90;;;;;;5050160;28;20060;-80
2021/12/23 13:47:58;;;;;;;77.47;29.25;;;1.20;99.90;;;;;;5017846;28;20033;-81
2021/12/23 13:50:25;;;;;;;76.25;30.40;;;1.10;99.90;;;;;;5050485;28;20101;-82
2021/12/23 13:52:52;;;;;;;77.35;28.80;;;1.40;99.90;;;;;;5049031;28;20048;-82
2021/12/23 13:55:21;;;;;;;77.90;29.13;;;1.20;99.90;;;;;;5048145;28;20037;-82